createdAt,value
2019-04-11T00:00:03.503Z,90.10
2019-04-11T00:02:33.066Z,90.10
2019-04-11T00:05:02.349Z,90.20
2019-04-11T00:07:32.066Z,90.10
2019-04-11T00:10:00.535Z,90.20
2019-04-11T00:12:28.912Z,90.30
2019-04-11T00:14:57.267Z,90.30
2019-04-11T00:17:25.875Z,90.30
2019-04-11T00:19:54.282Z,90.40
2019-04-11T00:22:23.565Z,90.20
2019-04-11T00:24:52.062Z,90.30
2019-04-11T00:27:21.203Z,90.40
2019-04-11T00:29:49.651Z,90.40
2019-04-11T00:32:19.083Z,90.20
2019-04-11T00:34:47.948Z,90.20
2019-04-11T00:37:16.954Z,90.30
2019-04-11T00:39:45.830Z,90.20
2019-04-11T00:42:14.584Z,90.40
2019-04-11T00:44:43.173Z,90.80
2019-04-11T00:47:13.011Z,90.50
2019-04-11T00:49:41.485Z,90.60
2019-04-11T00:52:10.032Z,90.50
2019-04-11T00:54:38.610Z,90.60
2019-04-11T00:57:08.482Z,90.60
2019-04-11T00:59:36.842Z,90.60
2019-04-11T01:02:05.543Z,90.60
2019-04-11T01:04:34.861Z,90.60
2019-04-11T01:07:03.449Z,90.40
2019-04-11T01:09:32.637Z,90.40
2019-04-11T01:12:01.081Z,90.50
2019-04-11T01:14:29.958Z,90.50
2019-04-11T01:16:59.034Z,90.40
2019-04-11T01:19:27.498Z,90.50
2019-04-11T01:21:57.861Z,90.50
2019-04-11T01:24:26.293Z,90.50
2019-04-11T01:26:54.799Z,90.60
2019-04-11T01:29:23.147Z,90.50
2019-04-11T01:31:53.832Z,90.60
2019-04-11T01:34:22.373Z,90.70
2019-04-11T01:36:51.321Z,90.80
2019-04-11T01:39:25.199Z,90.60
2019-04-11T01:41:55.188Z,90.50
2019-04-11T01:44:24.683Z,90.60
2019-04-11T01:46:54.164Z,90.50
2019-04-11T01:49:24.418Z,90.30
2019-04-11T01:51:53.850Z,90.20
2019-04-11T01:54:23.524Z,90.30
2019-04-11T01:56:52.357Z,90.30
2019-04-11T01:59:21.600Z,90.20
2019-04-11T02:02:09.546Z,90.50
2019-04-11T02:04:52.325Z,90.00
2019-04-11T02:07:20.831Z,89.90
2019-04-11T02:09:50.432Z,89.70
2019-04-11T02:12:19.792Z,89.00
2019-04-11T02:14:50.110Z,88.30
2019-04-11T02:17:18.923Z,87.40
2019-04-11T02:19:48.080Z,87.40
2019-04-11T02:22:22.236Z,86.90
2019-04-11T02:25:01.220Z,86.30
2019-04-11T02:27:30.787Z,86.50
2019-04-11T02:29:59.190Z,85.00
2019-04-11T02:32:29.328Z,85.00
2019-04-11T02:34:59.327Z,85.00
2019-04-11T02:37:29.398Z,85.20
2019-04-11T02:39:59.927Z,84.70
2019-04-11T02:42:28.369Z,84.30
2019-04-11T02:45:13.414Z,84.60
2019-04-11T02:47:31.887Z,83.90
2019-04-11T02:49:57.343Z,83.50
2019-04-11T02:52:27.657Z,83.80
2019-04-11T02:54:56.981Z,83.90
2019-04-11T02:57:25.823Z,83.80
2019-04-11T02:59:55.997Z,83.50
2019-04-11T03:02:26.037Z,83.60
2019-04-11T03:04:55.727Z,83.30
2019-04-11T03:07:24.876Z,82.80
2019-04-11T03:09:55.727Z,82.40
2019-04-11T03:12:24.198Z,81.90
2019-04-11T03:15:09.293Z,81.80
2019-04-11T03:17:28.686Z,81.80
2019-04-11T03:20:03.598Z,81.20
2019-04-11T03:22:24.740Z,80.60
2019-04-11T03:24:54.993Z,80.90
2019-04-11T03:27:26.070Z,81.10
2019-04-11T03:29:55.298Z,80.90
2019-04-11T03:35:59.608Z,81.00
2019-04-11T03:37:49.911Z,81.40
2019-04-11T03:40:13.167Z,80.90
2019-04-11T03:42:41.602Z,80.50
2019-04-11T03:45:15.084Z,80.40
2019-04-11T03:47:37.629Z,80.10
2019-04-11T03:50:02.998Z,80.30
2019-04-11T03:52:26.084Z,80.90
2019-04-11T03:54:56.258Z,80.50
2019-04-11T03:57:25.585Z,79.80
2019-04-11T03:59:54.532Z,79.80
2019-04-11T04:02:24.678Z,79.70
2019-04-11T04:04:54.110Z,80.00
2019-04-11T04:07:23.471Z,80.30
2019-04-11T04:09:53.793Z,79.70
2019-04-11T04:12:22.736Z,78.90
2019-04-11T04:14:53.933Z,79.40
2019-04-11T04:17:41.374Z,78.60
2019-04-11T04:20:19.351Z,78.50
2019-04-11T04:22:50.097Z,79.10
2019-04-11T04:25:18.944Z,78.80
2019-04-11T04:27:49.119Z,79.20
2019-04-11T04:30:19.852Z,79.00
2019-04-11T04:32:49.261Z,78.20
2019-04-11T04:35:21.013Z,78.80
2019-04-11T04:37:49.762Z,78.20
2019-04-11T04:40:36.030Z,78.00
2019-04-11T04:42:52.779Z,78.70
2019-04-11T04:45:19.284Z,79.20
2019-04-11T04:47:56.015Z,78.20
2019-04-11T04:50:19.928Z,78.60
2019-04-11T04:52:49.173Z,78.90
2019-04-11T04:55:19.286Z,78.90
2019-04-11T04:57:48.709Z,79.20
2019-04-11T05:00:18.849Z,78.70
2019-04-11T05:02:48.031Z,78.90
2019-04-11T05:05:17.826Z,79.10
2019-04-11T05:07:46.998Z,78.80
2019-04-11T05:10:16.253Z,78.90
2019-04-11T05:12:46.103Z,78.70
2019-04-11T05:15:16.477Z,79.20
2019-04-11T05:17:46.161Z,79.10
2019-04-11T05:20:16.185Z,79.20
2019-04-11T05:22:44.843Z,79.10
2019-04-11T05:25:13.222Z,78.90
2019-04-11T05:27:41.959Z,79.40
2019-04-11T05:30:11.266Z,79.20
2019-04-11T05:32:39.931Z,78.50
2019-04-11T05:35:08.971Z,78.40
2019-04-11T05:37:37.770Z,79.40
2019-04-11T05:40:07.251Z,79.20
2019-04-11T05:42:35.934Z,79.40
2019-04-11T05:45:05.385Z,79.40
2019-04-11T05:47:35.474Z,78.80
2019-04-11T05:50:16.640Z,78.30
2019-04-11T05:52:45.690Z,78.70
2019-04-11T05:55:15.498Z,78.80
2019-04-11T05:57:50.266Z,78.80
2019-04-11T06:00:35.230Z,78.10
2019-04-11T06:03:05.837Z,78.20
2019-04-11T06:05:37.923Z,78.00
2019-04-11T06:08:08.014Z,78.20
2019-04-11T06:10:54.761Z,77.70
2019-04-11T06:13:34.313Z,78.30
2019-04-11T06:16:04.485Z,78.00
2019-04-11T06:18:43.807Z,77.60
2019-04-11T06:21:15.804Z,78.00
2019-04-11T06:23:49.764Z,78.30
2019-04-11T06:26:28.625Z,78.00
2019-04-11T06:28:59.109Z,78.40
2019-04-11T06:31:45.803Z,78.30
2019-04-11T06:34:14.136Z,78.20
2019-04-11T06:36:48.227Z,78.10
2019-04-11T06:39:33.576Z,78.20
2019-04-11T06:42:15.435Z,77.60
2019-04-11T06:44:46.070Z,77.70
2019-04-11T06:47:18.874Z,77.90
2019-04-11T06:49:53.033Z,77.40
2019-04-11T06:52:22.596Z,77.60
2019-04-11T06:54:58.320Z,78.20
2019-04-11T06:57:34.169Z,78.20
2019-04-11T07:00:05.187Z,77.90
2019-04-11T07:02:35.443Z,77.00
2019-04-11T07:05:08.962Z,77.00
2019-04-11T07:07:39.499Z,76.70
2019-04-11T07:10:09.409Z,77.80
2019-04-11T07:12:45.311Z,77.60
2019-04-11T07:15:15.339Z,76.60
2019-04-11T07:17:58.841Z,76.60
2019-04-11T07:20:43.841Z,76.60
2019-04-11T07:23:30.793Z,76.90
2019-04-11T07:26:12.725Z,76.60
2019-04-11T07:28:43.898Z,77.60
2019-04-11T07:31:21.581Z,77.70
2019-04-11T07:33:56.082Z,77.30
2019-04-11T07:36:38.445Z,77.70
2019-04-11T07:39:09.851Z,77.90
2019-04-11T07:41:41.719Z,77.90
2019-04-11T07:44:17.849Z,78.20
2019-04-11T07:47:14.652Z,77.70
2019-04-11T07:49:45.018Z,78.30
2019-04-11T07:52:15.530Z,78.90
2019-04-11T07:54:44.121Z,78.50
2019-04-11T07:57:14.925Z,79.20
2019-04-11T07:59:53.915Z,78.80
2019-04-11T08:02:40.269Z,79.40
2019-04-11T08:05:13.254Z,80.10
2019-04-11T08:07:59.396Z,79.20
2019-04-11T08:10:29.432Z,80.00
2019-04-11T08:12:59.479Z,80.10
2019-04-11T08:15:41.940Z,79.70
2019-04-11T08:18:12.497Z,78.90
2019-04-11T08:20:48.245Z,79.70
2019-04-11T08:23:19.433Z,79.80
2019-04-11T08:25:49.727Z,79.40
2019-04-11T08:28:18.511Z,79.70
2019-04-11T08:30:48.942Z,79.40
2019-04-11T08:33:19.422Z,79.40
2019-04-11T08:35:54.007Z,78.60
2019-04-11T08:38:24.757Z,78.50
2019-04-11T08:40:55.482Z,77.20
2019-04-11T08:43:28.897Z,76.80
2019-04-11T08:46:02.600Z,76.00
2019-04-11T08:48:33.054Z,76.00
2019-04-11T08:51:14.894Z,75.80
2019-04-11T08:53:44.980Z,75.40
2019-04-11T08:56:21.102Z,75.50
2019-04-11T08:59:11.236Z,76.30
2019-04-11T09:01:40.295Z,75.30
2019-04-11T09:04:14.974Z,75.30
2019-04-11T09:06:43.502Z,74.10
2019-04-11T09:09:20.795Z,75.30
2019-04-11T09:11:51.022Z,75.60
2019-04-11T09:14:22.210Z,75.00
2019-04-11T09:16:56.225Z,73.60
2019-04-11T09:19:38.968Z,73.80
2019-04-11T09:22:13.090Z,73.30
2019-04-11T09:24:43.327Z,73.20
2019-04-11T09:27:30.977Z,72.90
2019-04-11T09:30:04.459Z,72.80
2019-04-11T09:32:52.987Z,72.30
2019-04-11T09:35:23.904Z,72.30
2019-04-11T09:37:53.747Z,71.30
2019-04-11T09:40:41.594Z,71.30
2019-04-11T09:43:15.806Z,71.10
2019-04-11T09:45:52.637Z,71.30
2019-04-11T09:48:34.777Z,70.80
2019-04-11T09:51:17.809Z,69.60
2019-04-11T09:53:48.085Z,70.00
2019-04-11T09:56:31.232Z,70.10
2019-04-11T09:59:05.389Z,69.70
2019-04-11T10:01:35.463Z,68.80
2019-04-11T10:04:04.020Z,67.50
2019-04-11T10:06:49.316Z,67.20
2019-04-11T10:09:17.086Z,66.80
2019-04-11T10:12:04.529Z,67.20
2019-04-11T10:14:33.532Z,66.50
2019-04-11T10:17:22.720Z,66.00
2019-04-11T10:19:50.090Z,66.90
2019-04-11T10:22:22.788Z,64.70
2019-04-11T10:25:08.103Z,64.60
2019-04-11T10:27:55.213Z,63.80
2019-04-11T10:30:25.863Z,62.70
2019-04-11T10:33:01.697Z,61.50
2019-04-11T10:35:40.834Z,61.30
2019-04-11T10:38:11.947Z,62.20
2019-04-11T10:41:00.875Z,62.50
2019-04-11T10:43:34.319Z,63.20
2019-04-11T10:46:07.175Z,62.10
2019-04-11T10:48:54.789Z,62.60
2019-04-11T10:51:27.980Z,61.70
2019-04-11T10:53:57.564Z,61.50
2019-04-11T10:56:30.561Z,62.20
2019-04-11T10:58:59.568Z,60.80
2019-04-11T11:01:32.086Z,59.40
2019-04-11T11:04:03.294Z,59.60
2019-04-11T11:06:33.707Z,60.00
2019-04-11T11:09:12.914Z,60.20
2019-04-11T11:11:52.592Z,59.80
2019-04-11T11:14:25.371Z,61.00
2019-04-11T11:17:02.409Z,59.00
2019-04-11T11:19:55.148Z,58.50
2019-04-11T11:22:16.735Z,59.10
2019-04-11T11:24:50.372Z,59.60
2019-04-11T11:27:20.393Z,59.90
2019-04-11T11:29:51.561Z,61.00
2019-04-11T11:32:21.031Z,61.00
2019-04-11T11:34:55.045Z,60.00
2019-04-11T11:37:25.221Z,58.30
2019-04-11T11:40:14.886Z,58.00
2019-04-11T11:43:00.928Z,58.30
2019-04-11T11:45:31.091Z,59.00
2019-04-11T11:48:12.826Z,59.80
2019-04-11T11:50:37.592Z,58.70
2019-04-11T11:53:19.714Z,58.20
2019-04-11T11:55:49.570Z,57.20
2019-04-11T11:58:35.975Z,56.90
2019-04-11T12:01:09.006Z,57.50
2019-04-11T12:03:40.306Z,58.60
2019-04-11T12:06:09.647Z,58.70
2019-04-11T12:08:47.468Z,57.80
2019-04-11T12:11:15.612Z,57.70
2019-04-11T12:14:02.187Z,57.40
2019-04-11T12:16:36.285Z,57.90
2019-04-11T12:19:22.329Z,58.00
2019-04-11T12:21:53.643Z,58.60
2019-04-11T12:24:26.278Z,59.00
2019-04-11T12:27:13.224Z,59.50
2019-04-11T12:30:00.531Z,59.70
2019-04-11T12:32:32.594Z,60.10
2019-04-11T12:35:06.127Z,61.10
2019-04-11T12:37:41.883Z,61.10
2019-04-11T12:40:28.484Z,61.60
2019-04-11T12:42:58.777Z,62.20
2019-04-11T12:45:34.615Z,62.10
2019-04-11T12:48:04.176Z,62.80
2019-04-11T12:50:50.681Z,63.90
2019-04-11T12:53:19.098Z,64.60
2019-04-11T12:55:58.540Z,65.40
2019-04-11T12:58:28.672Z,66.10
2019-04-11T13:00:58.663Z,65.60
2019-04-11T13:03:37.646Z,65.70
2019-04-11T13:06:07.704Z,65.20
2019-04-11T13:08:53.978Z,64.40
2019-04-11T13:11:24.148Z,65.10
2019-04-11T13:13:54.233Z,65.30
2019-04-11T13:16:24.463Z,66.10
2019-04-11T13:19:10.834Z,65.00
2019-04-11T13:21:41.144Z,63.30
2019-04-11T13:24:27.300Z,63.40
2019-04-11T13:27:15.842Z,62.80
2019-04-11T13:29:45.973Z,62.70
2019-04-11T13:32:37.899Z,61.50
2019-04-11T13:35:08.941Z,61.70
2019-04-11T13:37:55.213Z,60.80
2019-04-11T13:40:31.048Z,59.50
2019-04-11T13:43:17.582Z,58.50
2019-04-11T13:45:47.655Z,60.10
2019-04-11T13:48:34.207Z,59.40
2019-04-11T13:51:07.647Z,60.00
2019-04-11T13:53:37.696Z,60.40
2019-04-11T13:56:06.290Z,59.50
2019-04-11T13:58:52.753Z,58.80
2019-04-11T14:01:21.172Z,59.30
2019-04-11T14:03:59.989Z,59.50
2019-04-11T14:06:28.354Z,60.10
2019-04-11T14:08:59.275Z,59.30
2019-04-11T14:11:29.351Z,59.10
2019-04-11T14:13:59.337Z,59.70
2019-04-11T14:16:29.965Z,60.20
2019-04-11T14:19:12.594Z,60.00
2019-04-11T14:21:43.715Z,59.80
2019-04-11T14:24:32.597Z,59.10
2019-04-11T14:27:17.835Z,59.20
2019-04-11T14:29:53.622Z,59.60
2019-04-11T14:32:24.117Z,60.30
2019-04-11T14:35:06.461Z,59.80
2019-04-11T14:37:38.353Z,60.30
2019-04-11T14:40:18.425Z,60.80
2019-04-11T14:43:00.380Z,62.10
2019-04-11T14:45:36.590Z,62.70
2019-04-11T14:48:19.060Z,63.00
2019-04-11T14:50:49.039Z,63.60
2019-04-11T14:53:25.089Z,62.70
2019-04-11T14:55:55.063Z,63.50
2019-04-11T14:58:27.876Z,62.70
2019-04-11T15:00:56.240Z,62.80
2019-04-11T15:03:29.093Z,62.50
2019-04-11T15:05:59.080Z,61.50
2019-04-11T15:08:29.056Z,61.60
2019-04-11T15:11:11.347Z,62.20
2019-04-11T15:13:41.601Z,62.00
2019-04-11T15:16:11.590Z,62.10
2019-04-11T15:18:41.814Z,61.60
2019-04-11T15:21:30.209Z,61.80
2019-04-11T15:23:58.570Z,62.10
2019-04-11T15:26:28.545Z,61.80
2019-04-11T15:28:58.552Z,62.70
2019-04-11T15:31:39.415Z,63.00
2019-04-11T15:34:14.845Z,63.50
2019-04-11T15:36:44.843Z,63.30
2019-04-11T15:39:30.909Z,63.30
2019-04-11T15:42:02.372Z,63.10
2019-04-11T15:44:36.928Z,63.70
2019-04-11T15:47:18.703Z,63.80
2019-04-11T15:50:03.277Z,63.80
2019-04-11T15:52:31.795Z,64.00
2019-04-11T15:55:18.018Z,64.50
2019-04-11T15:57:46.673Z,64.70
2019-04-11T16:00:16.848Z,64.70
2019-04-11T16:02:56.374Z,65.30
2019-04-11T16:05:43.153Z,65.50
2019-04-11T16:08:13.360Z,65.80
2019-04-11T16:10:49.540Z,65.80
2019-04-11T16:13:19.884Z,66.00
2019-04-11T16:16:06.584Z,66.30
2019-04-11T16:18:36.297Z,66.10
2019-04-11T16:21:17.988Z,66.20
2019-04-11T16:23:56.948Z,66.10
2019-04-11T16:26:26.723Z,66.20
2019-04-11T16:28:59.471Z,65.90
2019-04-11T16:31:29.711Z,66.20
2019-04-11T16:33:59.713Z,66.30
2019-04-11T16:36:29.699Z,66.00
2019-04-11T16:39:11.935Z,65.80
2019-04-11T16:41:57.036Z,66.40
2019-04-11T16:44:27.300Z,66.50
2019-04-11T16:47:09.348Z,66.70
2019-04-11T16:49:38.011Z,67.50
2019-04-11T16:52:08.297Z,67.60
2019-04-11T16:54:39.746Z,68.00
2019-04-11T16:57:08.907Z,68.20
2019-04-11T16:59:37.391Z,68.20
2019-04-11T17:02:05.880Z,68.50
2019-04-11T17:04:34.601Z,68.80
2019-04-11T17:07:23.841Z,68.90
2019-04-11T17:09:56.483Z,68.90
2019-04-11T17:12:26.658Z,69.30
2019-04-11T17:14:54.913Z,68.90
2019-04-11T17:17:26.120Z,69.10
2019-04-11T17:19:53.507Z,69.20
2019-04-11T17:22:21.840Z,69.20
2019-04-11T17:24:50.181Z,68.90
2019-04-11T17:27:20.890Z,69.30
2019-04-11T17:29:48.862Z,69.40
2019-04-11T17:32:17.213Z,68.80
2019-04-11T17:34:45.756Z,68.70
2019-04-11T17:37:14.396Z,68.50
2019-04-11T17:39:42.909Z,68.60
2019-04-11T17:42:13.375Z,68.70
2019-04-11T17:44:41.453Z,68.50
2019-04-11T17:47:10.040Z,68.60
2019-04-11T17:49:38.395Z,68.30
2019-04-11T17:52:06.721Z,68.20
2019-04-11T17:54:35.368Z,68.10
2019-04-11T17:57:03.923Z,68.20
2019-04-11T17:59:32.748Z,76.30
2019-04-11T18:02:01.125Z,70.70
2019-04-11T18:04:29.501Z,66.80
2019-04-11T18:06:58.079Z,66.70
2019-04-11T18:09:26.495Z,67.20
2019-04-11T18:11:56.247Z,67.50
2019-04-11T18:14:24.940Z,67.70
2019-04-11T18:16:53.323Z,68.20
2019-04-11T18:19:21.727Z,68.80
2019-04-11T18:21:50.054Z,68.70
2019-04-11T18:24:20.000Z,69.10
2019-04-11T18:26:51.787Z,68.90
2019-04-11T18:29:22.773Z,67.60
2019-04-11T18:31:49.285Z,67.70
2019-04-11T18:34:17.769Z,66.70
2019-04-11T18:36:46.271Z,66.10
2019-04-11T18:39:14.954Z,65.40
2019-04-11T18:41:43.602Z,65.10
2019-04-11T18:44:12.415Z,65.10
2019-04-11T18:46:40.956Z,66.80
2019-04-11T18:49:09.717Z,66.20
2019-04-11T18:51:38.579Z,66.20
2019-04-11T18:54:07.832Z,66.50
2019-04-11T18:56:38.043Z,66.80
2019-04-11T18:59:06.955Z,66.50
2019-04-11T19:01:39.210Z,66.10
2019-04-11T19:04:05.891Z,65.30
2019-04-11T19:06:34.745Z,65.10
2019-04-11T19:09:05.458Z,65.00
2019-04-11T19:11:33.904Z,64.90
2019-04-11T19:14:02.753Z,64.30
2019-04-11T19:16:31.255Z,64.20
2019-04-11T19:19:01.832Z,64.20
2019-04-11T19:21:30.163Z,64.20
2019-04-11T19:23:58.606Z,64.00
2019-04-11T19:26:27.076Z,63.70
2019-04-11T19:28:55.762Z,63.50
2019-04-11T19:31:27.132Z,63.70
2019-04-11T19:33:54.423Z,63.30
2019-04-11T19:36:22.883Z,63.00
2019-04-11T19:38:51.630Z,62.70
2019-04-11T19:41:20.171Z,62.60
2019-04-11T19:43:49.176Z,62.60
2019-04-11T19:46:20.494Z,62.50
2019-04-11T19:48:48.738Z,62.70
2019-04-11T19:51:17.162Z,62.50
2019-04-11T19:53:45.695Z,62.50
2019-04-11T19:56:24.488Z,62.20
2019-04-11T19:58:52.983Z,62.60
2019-04-11T20:01:23.503Z,62.70
2019-04-11T20:03:53.775Z,62.60
2019-04-11T20:06:22.008Z,62.60
2019-04-11T20:08:50.338Z,62.60
2019-04-11T20:11:18.863Z,62.70
2019-04-11T20:13:47.349Z,62.80
2019-04-11T20:16:15.710Z,63.20
2019-04-11T20:18:50.964Z,62.80
2019-04-11T20:21:14.290Z,62.60
2019-04-11T20:23:42.859Z,62.70
2019-04-11T20:26:11.697Z,62.40
2019-04-11T20:28:40.061Z,62.60
2019-04-11T20:31:08.729Z,62.50
2019-04-11T20:33:37.196Z,62.60
2019-04-11T20:36:08.190Z,62.00
2019-04-11T20:38:35.735Z,62.10
2019-04-11T20:41:04.516Z,62.40
2019-04-11T20:43:33.081Z,63.10
2019-04-11T20:46:01.407Z,62.20
2019-04-11T20:48:30.932Z,62.30
2019-04-11T20:51:00.243Z,62.40
2019-04-11T20:53:28.660Z,61.80
2019-04-11T20:55:57.238Z,62.10
2019-04-11T20:58:27.601Z,62.20
2019-04-11T21:00:56.496Z,62.70
2019-04-11T21:03:25.291Z,62.70
2019-04-11T21:05:53.645Z,62.60
2019-04-11T21:08:22.299Z,62.80
2019-04-11T21:10:51.031Z,63.10
2019-04-11T21:13:19.738Z,63.30
2019-04-11T21:15:48.384Z,63.50
2019-04-11T21:18:17.038Z,63.40
2019-04-11T21:20:45.404Z,63.50
2019-04-11T21:23:23.986Z,63.90
2019-04-11T21:25:44.190Z,63.90
2019-04-11T21:28:12.677Z,64.80
2019-04-11T21:30:41.099Z,64.90
2019-04-11T21:33:09.654Z,64.20
2019-04-11T21:35:38.002Z,64.40
2019-04-11T21:38:06.492Z,64.50
2019-04-11T21:40:35.924Z,64.50
2019-04-11T21:43:06.273Z,64.90
2019-04-11T21:45:35.870Z,64.80
2019-04-11T21:48:06.576Z,65.00
2019-04-11T21:50:35.286Z,65.00
2019-04-11T21:53:03.860Z,65.10
2019-04-11T21:55:32.440Z,65.70
2019-04-11T21:58:00.838Z,64.80
2019-04-11T22:00:32.507Z,64.70
2019-04-11T22:03:00.847Z,64.80
2019-04-11T22:05:29.860Z,64.80
2019-04-11T22:08:02.922Z,65.00
2019-04-11T22:10:28.780Z,64.80
2019-04-11T22:12:58.756Z,65.00
2019-04-11T22:15:27.290Z,65.30
2019-04-11T22:17:55.779Z,65.10
2019-04-11T22:20:24.321Z,65.00
2019-04-11T22:22:52.655Z,65.30
2019-04-11T22:25:21.133Z,65.80
2019-04-11T22:27:51.068Z,65.90
2019-04-11T22:30:20.124Z,66.00
2019-04-11T22:32:50.466Z,66.10
2019-04-11T22:35:18.984Z,66.10
2019-04-11T22:37:47.442Z,66.30
2019-04-11T22:40:16.029Z,66.60
2019-04-11T22:42:44.508Z,66.70
2019-04-11T22:45:13.189Z,67.00
2019-04-11T22:47:41.680Z,67.00
2019-04-11T22:50:10.777Z,67.20
2019-04-11T22:52:39.785Z,67.50
2019-04-11T22:55:11.249Z,67.90
2019-04-11T22:57:43.319Z,68.30
2019-04-11T23:00:09.673Z,68.30
2019-04-11T23:02:39.792Z,68.20
2019-04-11T23:05:08.283Z,68.80
2019-04-11T23:07:36.962Z,68.80
2019-04-11T23:10:06.454Z,68.90
2019-04-11T23:12:34.790Z,69.30
2019-04-11T23:15:03.757Z,69.40
2019-04-11T23:17:32.253Z,69.70
2019-04-11T23:20:00.903Z,69.80
2019-04-11T23:22:29.655Z,70.10
2019-04-11T23:24:58.150Z,70.50
2019-04-11T23:27:26.481Z,71.00
2019-04-11T23:29:54.821Z,71.60
2019-04-11T23:32:23.168Z,71.90
2019-04-11T23:34:52.767Z,72.40
2019-04-11T23:37:21.911Z,72.70
2019-04-11T23:39:51.082Z,73.00
2019-04-11T23:42:20.403Z,73.20
2019-04-11T23:44:50.576Z,73.40
2019-04-11T23:47:20.121Z,73.30
2019-04-11T23:49:48.959Z,73.30
2019-04-11T23:52:17.284Z,73.30
2019-04-11T23:54:45.612Z,73.50
2019-04-11T23:57:14.097Z,73.40
2019-04-11T23:59:42.597Z,73.30
